createdAt,value
2019-05-14T00:01:42.247Z,51.80
2019-05-14T00:04:11.787Z,52.00
2019-05-14T00:06:41.820Z,52.10
2019-05-14T00:09:12.127Z,52.20
2019-05-14T00:11:42.243Z,52.20
2019-05-14T00:14:11.842Z,52.40
2019-05-14T00:16:42.504Z,52.70
2019-05-14T00:19:12.106Z,53.10
2019-05-14T00:21:42.365Z,53.30
2019-05-14T00:24:11.836Z,53.60
2019-05-14T00:26:42.663Z,53.80
2019-05-14T00:29:12.176Z,54.00
2019-05-14T00:31:42.557Z,54.10
2019-05-14T00:34:12.046Z,54.10
2019-05-14T00:36:41.861Z,54.00
2019-05-14T00:39:11.424Z,54.10
2019-05-14T00:41:42.061Z,54.30
2019-05-14T00:44:13.562Z,54.50
2019-05-14T00:46:42.660Z,54.50
2019-05-14T00:49:12.039Z,54.70
2019-05-14T00:51:41.529Z,54.70
2019-05-14T00:54:11.293Z,54.70
2019-05-14T00:56:41.640Z,54.80
2019-05-14T00:59:11.409Z,54.90
2019-05-14T01:01:42.529Z,54.90
2019-05-14T01:04:12.043Z,55.10
2019-05-14T01:06:42.134Z,55.30
2019-05-14T01:09:11.671Z,55.50
2019-05-14T01:11:42.048Z,55.70
2019-05-14T01:14:12.403Z,55.90
2019-05-14T01:16:42.453Z,56.00
2019-05-14T01:19:12.366Z,56.10
2019-05-14T01:21:41.903Z,56.30
2019-05-14T01:24:12.548Z,56.30
2019-05-14T01:26:42.012Z,56.40
2019-05-14T01:29:12.100Z,56.40
2019-05-14T01:31:41.864Z,56.40
2019-05-14T01:34:11.360Z,56.40
2019-05-14T01:36:41.348Z,56.30
2019-05-14T01:39:12.081Z,56.50
2019-05-14T01:41:42.362Z,56.60
2019-05-14T01:44:12.116Z,56.70
2019-05-14T01:46:42.026Z,56.90
2019-05-14T01:49:12.062Z,57.00
2019-05-14T01:51:42.338Z,57.20
2019-05-14T01:54:12.080Z,57.40
2019-05-14T01:56:42.258Z,57.70
2019-05-14T01:59:12.208Z,57.70
2019-05-14T02:01:41.791Z,57.70
2019-05-14T02:04:11.836Z,57.70
2019-05-14T02:06:41.590Z,57.80
2019-05-14T02:09:11.269Z,57.90
2019-05-14T02:11:41.520Z,58.00
2019-05-14T02:14:11.784Z,58.30
2019-05-14T02:16:42.299Z,58.60
2019-05-14T02:19:11.869Z,58.80
2019-05-14T02:21:42.582Z,59.00
2019-05-14T02:24:12.031Z,59.10
2019-05-14T02:26:42.441Z,59.10
2019-05-14T02:29:12.475Z,59.20
2019-05-14T02:31:42.038Z,59.00
2019-05-14T02:34:11.377Z,58.80
2019-05-14T02:36:40.766Z,58.70
2019-05-14T02:39:10.499Z,58.80
2019-05-14T02:41:39.945Z,58.90
2019-05-14T02:44:10.033Z,58.80
2019-05-14T02:46:40.554Z,58.70
2019-05-14T02:49:10.658Z,58.60
2019-05-14T02:51:40.205Z,58.50
2019-05-14T02:54:10.165Z,58.60
2019-05-14T02:56:40.288Z,58.70
2019-05-14T02:59:10.190Z,58.80
2019-05-14T03:01:40.812Z,59.00
2019-05-14T03:04:10.487Z,59.20
2019-05-14T03:06:39.971Z,59.40
2019-05-14T03:09:09.970Z,59.60
2019-05-14T03:11:40.625Z,59.70
2019-05-14T03:14:10.105Z,59.70
2019-05-14T03:16:40.541Z,59.80
2019-05-14T03:19:10.252Z,59.90
2019-05-14T03:21:39.906Z,60.00
2019-05-14T03:24:09.760Z,60.10
2019-05-14T03:26:39.873Z,60.20
2019-05-14T03:29:10.076Z,60.20
2019-05-14T03:31:42.477Z,60.60
2019-05-14T03:34:13.415Z,61.10
2019-05-14T03:36:43.258Z,61.40
2019-05-14T03:39:13.220Z,61.90
2019-05-14T03:41:42.597Z,62.40
2019-05-14T03:44:12.016Z,62.80
2019-05-14T03:46:51.289Z,63.10
2019-05-14T03:49:12.565Z,63.40
2019-05-14T03:51:41.970Z,63.40
2019-05-14T03:54:12.712Z,63.50
2019-05-14T03:56:42.395Z,63.70
2019-05-14T03:59:11.826Z,63.90
2019-05-14T04:01:41.403Z,64.00
2019-05-14T04:04:10.834Z,64.20
2019-05-14T04:06:41.791Z,64.30
2019-05-14T04:09:14.203Z,64.50
2019-05-14T04:11:45.974Z,64.70
2019-05-14T04:14:20.120Z,64.60
2019-05-14T04:17:05.309Z,64.60
2019-05-14T04:19:24.949Z,64.80
2019-05-14T04:21:55.789Z,64.70
2019-05-14T04:24:29.554Z,64.70
2019-05-14T04:27:07.404Z,64.50
2019-05-14T04:29:33.891Z,64.30
2019-05-14T04:32:04.457Z,64.10
2019-05-14T04:34:34.255Z,63.90
2019-05-14T04:37:03.762Z,63.80
2019-05-14T04:39:33.157Z,63.60
2019-05-14T04:42:02.541Z,63.20
2019-05-14T04:44:31.946Z,63.00
2019-05-14T04:47:21.395Z,62.60
2019-05-14T04:49:32.645Z,62.20
2019-05-14T04:52:02.044Z,61.70
2019-05-14T04:54:31.458Z,61.30
2019-05-14T04:57:00.979Z,60.90
2019-05-14T04:59:30.357Z,60.60
2019-05-14T05:02:00.327Z,60.20
2019-05-14T05:04:30.200Z,59.80
2019-05-14T05:06:59.754Z,59.70
2019-05-14T05:09:29.423Z,59.60
2019-05-14T05:11:59.746Z,59.70
2019-05-14T05:14:29.797Z,59.70
2019-05-14T05:16:59.772Z,59.70
2019-05-14T05:19:29.392Z,59.70
2019-05-14T05:21:58.895Z,59.70
2019-05-14T05:24:28.824Z,59.70
2019-05-14T05:26:58.602Z,59.70
2019-05-14T05:29:28.679Z,59.50
2019-05-14T05:31:59.331Z,58.90
2019-05-14T05:34:28.936Z,58.40
2019-05-14T05:36:59.191Z,57.90
2019-05-14T05:39:28.811Z,57.40
2019-05-14T05:41:58.645Z,56.90
2019-05-14T05:44:28.802Z,56.30
2019-05-14T05:46:59.710Z,56.20
2019-05-14T05:49:29.355Z,56.20
2019-05-14T05:51:59.300Z,56.20
2019-05-14T05:54:29.345Z,56.30
2019-05-14T05:56:58.773Z,56.90
2019-05-14T05:59:29.265Z,56.20
2019-05-14T06:01:58.962Z,56.10
2019-05-14T06:04:29.025Z,56.00
2019-05-14T06:07:00.786Z,56.20
2019-05-14T06:09:29.620Z,56.20
2019-05-14T06:11:59.870Z,56.00
2019-05-14T06:14:29.344Z,55.50
2019-05-14T06:16:59.218Z,55.00
2019-05-14T06:19:29.135Z,54.60
2019-05-14T06:21:59.674Z,54.50
2019-05-14T06:24:29.261Z,54.20
2019-05-14T06:26:58.852Z,53.70
2019-05-14T06:29:29.035Z,53.50
2019-05-14T06:31:59.074Z,53.20
2019-05-14T06:34:29.119Z,52.90
2019-05-14T06:36:59.151Z,52.60
2019-05-14T06:39:28.757Z,52.30
2019-05-14T06:41:58.702Z,51.30
2019-05-14T06:44:29.397Z,50.10
2019-05-14T06:46:59.164Z,50.10
2019-05-14T06:49:29.114Z,49.50
2019-05-14T06:51:59.263Z,48.60
2019-05-14T06:54:29.335Z,47.90
2019-05-14T06:56:58.792Z,47.50
2019-05-14T06:59:28.766Z,47.00
2019-05-14T07:01:58.323Z,46.20
2019-05-14T07:04:28.873Z,45.50
2019-05-14T07:06:59.125Z,45.00
2019-05-14T07:09:29.079Z,44.50
2019-05-14T07:11:58.685Z,44.30
2019-05-14T07:14:28.404Z,44.10
2019-05-14T07:16:58.826Z,44.00
2019-05-14T07:19:29.467Z,43.90
2019-05-14T07:21:59.074Z,43.40
2019-05-14T07:24:28.516Z,43.00
2019-05-14T07:26:58.612Z,43.00
2019-05-14T07:29:29.375Z,42.80
2019-05-14T07:31:58.913Z,42.10
2019-05-14T07:34:28.466Z,41.80
2019-05-14T07:36:58.653Z,41.90
2019-05-14T07:39:29.117Z,41.70
2019-05-14T07:41:59.222Z,41.60
2019-05-14T07:44:29.681Z,41.70
2019-05-14T07:46:59.271Z,41.30
2019-05-14T07:49:29.199Z,40.60
2019-05-14T07:51:58.848Z,39.90
2019-05-14T07:54:28.432Z,39.90
2019-05-14T07:56:59.088Z,40.20
2019-05-14T07:59:28.871Z,39.60
2019-05-14T08:01:58.694Z,39.10
2019-05-14T08:04:29.007Z,38.70
2019-05-14T08:06:58.606Z,38.40
2019-05-14T08:09:28.399Z,38.30
2019-05-14T08:11:58.691Z,38.70
2019-05-14T08:14:29.385Z,38.10
2019-05-14T08:16:59.612Z,38.40
2019-05-14T08:19:31.473Z,38.40
2019-05-14T08:22:00.120Z,38.10
2019-05-14T08:24:30.189Z,38.30
2019-05-14T08:26:59.635Z,38.60
2019-05-14T08:29:29.029Z,38.90
2019-05-14T08:31:58.413Z,39.40
2019-05-14T08:34:30.433Z,40.10
2019-05-14T08:36:58.946Z,40.70
2019-05-14T08:39:28.712Z,41.20
2019-05-14T08:42:03.630Z,41.50
2019-05-14T08:44:29.519Z,41.70
2019-05-14T08:46:59.204Z,41.70
2019-05-14T08:49:38.895Z,42.00
2019-05-14T08:51:59.791Z,42.20
2019-05-14T08:54:29.183Z,42.50
2019-05-14T08:56:58.593Z,42.60
2019-05-14T08:59:28.679Z,42.40
2019-05-14T09:02:05.895Z,41.50
2019-05-14T09:04:30.637Z,40.30
2019-05-14T09:07:00.269Z,39.50
2019-05-14T09:09:29.740Z,39.30
2019-05-14T09:11:59.896Z,39.00
2019-05-14T09:14:29.425Z,39.00
2019-05-14T09:16:59.897Z,39.10
2019-05-14T09:19:29.533Z,39.60
2019-05-14T09:21:59.101Z,40.20
2019-05-14T09:24:29.230Z,40.80
2019-05-14T09:26:59.389Z,41.30
2019-05-14T09:29:29.897Z,41.50
2019-05-14T09:31:59.494Z,41.40
2019-05-14T09:34:29.169Z,41.50
2019-05-14T09:36:59.478Z,41.50
2019-05-14T09:39:29.226Z,42.00
2019-05-14T09:41:58.721Z,42.00
2019-05-14T09:44:29.350Z,42.20
2019-05-14T09:46:59.340Z,42.30
2019-05-14T09:49:28.964Z,42.50
2019-05-14T09:51:58.451Z,42.80
2019-05-14T09:54:28.755Z,43.10
2019-05-14T09:56:59.124Z,43.30
2019-05-14T09:59:28.826Z,43.40
2019-05-14T10:01:58.669Z,43.50
2019-05-14T10:04:28.176Z,43.40
2019-05-14T10:06:59.231Z,42.90
2019-05-14T10:09:29.123Z,42.10
2019-05-14T10:11:58.604Z,41.50
2019-05-14T10:14:29.811Z,41.10
2019-05-14T10:16:59.067Z,40.60
2019-05-14T10:19:29.513Z,40.90
2019-05-14T10:21:59.250Z,40.60
2019-05-14T10:24:29.152Z,39.70
2019-05-14T10:26:58.716Z,39.10
2019-05-14T10:29:28.641Z,38.90
2019-05-14T10:31:59.250Z,38.80
2019-05-14T10:34:28.925Z,38.50
2019-05-14T10:36:59.041Z,37.70
2019-05-14T10:39:31.003Z,36.80
2019-05-14T10:42:00.459Z,35.60
2019-05-14T10:44:29.869Z,35.20
2019-05-14T10:46:59.430Z,35.30
2019-05-14T10:49:29.995Z,35.10
2019-05-14T10:51:59.677Z,34.90
2019-05-14T10:54:29.467Z,35.50
2019-05-14T10:56:59.447Z,35.40
2019-05-14T10:59:29.555Z,35.50
2019-05-14T11:01:59.013Z,36.00
2019-05-14T11:04:28.717Z,36.70
2019-05-14T11:06:58.189Z,37.40
2019-05-14T11:09:28.555Z,38.00
2019-05-14T11:11:58.412Z,37.60
2019-05-14T11:14:31.740Z,37.20
2019-05-14T11:16:59.282Z,36.80
2019-05-14T11:19:28.766Z,36.60
2019-05-14T11:21:58.172Z,36.00
2019-05-14T11:24:29.607Z,35.20
2019-05-14T11:26:59.192Z,34.80
2019-05-14T11:29:29.564Z,34.30
2019-05-14T11:31:59.246Z,34.30
2019-05-14T11:34:28.927Z,34.80
2019-05-14T11:36:58.906Z,35.60
2019-05-14T11:39:28.950Z,36.30
2019-05-14T11:41:59.013Z,37.70
2019-05-14T11:44:28.794Z,38.70
2019-05-14T11:47:02.449Z,39.40
2019-05-14T11:49:29.216Z,40.10
2019-05-14T11:52:06.980Z,41.20
2019-05-14T11:54:29.725Z,41.90
2019-05-14T11:57:00.416Z,42.10
2019-05-14T11:59:29.893Z,41.70
2019-05-14T12:01:59.484Z,40.80
2019-05-14T12:04:28.951Z,39.50
2019-05-14T12:06:59.133Z,38.70
2019-05-14T12:09:28.981Z,37.80
2019-05-14T12:12:01.317Z,37.50
2019-05-14T12:14:30.742Z,38.00
2019-05-14T12:17:00.299Z,38.20
2019-05-14T12:19:29.768Z,37.70
2019-05-14T12:22:07.108Z,37.50
2019-05-14T12:24:30.276Z,36.90
2019-05-14T12:26:59.724Z,36.70
2019-05-14T12:29:29.454Z,36.20
2019-05-14T12:31:58.954Z,36.20
2019-05-14T12:34:29.564Z,36.50
2019-05-14T12:36:59.463Z,36.80
2019-05-14T12:39:29.471Z,37.40
2019-05-14T12:41:58.996Z,37.80
2019-05-14T12:44:29.238Z,37.10
2019-05-14T12:46:58.888Z,36.60
2019-05-14T12:49:28.390Z,36.40
2019-05-14T12:51:59.150Z,36.00
2019-05-14T12:54:29.853Z,35.60
2019-05-14T12:56:59.399Z,34.50
2019-05-14T12:59:28.857Z,34.40
2019-05-14T13:01:58.799Z,34.50
2019-05-14T13:04:28.618Z,34.10
2019-05-14T13:06:59.725Z,33.80
2019-05-14T13:09:29.453Z,33.00
2019-05-14T13:11:58.858Z,32.30
2019-05-14T13:14:28.437Z,32.60
2019-05-14T13:16:59.773Z,32.50
2019-05-14T13:19:29.129Z,32.70
2019-05-14T13:22:09.888Z,33.20
2019-05-14T13:24:29.732Z,34.10
2019-05-14T13:26:59.245Z,35.00
2019-05-14T13:29:29.075Z,35.80
2019-05-14T13:31:59.214Z,36.30
2019-05-14T13:34:28.983Z,36.20
2019-05-14T13:36:59.718Z,35.40
2019-05-14T13:39:29.291Z,33.80
2019-05-14T13:41:59.115Z,33.00
2019-05-14T13:44:29.238Z,32.60
2019-05-14T13:46:59.610Z,32.10
2019-05-14T13:49:29.625Z,31.80
2019-05-14T13:51:59.260Z,31.40
2019-05-14T13:54:31.815Z,31.10
2019-05-14T13:56:59.752Z,30.90
2019-05-14T13:59:29.132Z,30.80
2019-05-14T14:01:59.295Z,30.90
2019-05-14T14:04:28.723Z,30.90
2019-05-14T14:06:59.027Z,31.30
2019-05-14T14:09:31.473Z,31.50
2019-05-14T14:11:59.596Z,31.50
2019-05-14T14:14:29.290Z,31.70
2019-05-14T14:16:58.688Z,32.30
2019-05-14T14:19:28.334Z,32.50
2019-05-14T14:21:59.041Z,32.50
2019-05-14T14:24:29.201Z,32.10
2019-05-14T14:26:58.612Z,31.70
2019-05-14T14:29:28.022Z,30.90
2019-05-14T14:31:58.970Z,30.70
2019-05-14T14:34:29.130Z,30.20
2019-05-14T14:36:59.309Z,30.30
2019-05-14T14:39:28.946Z,31.20
2019-05-14T14:41:58.574Z,32.70
2019-05-14T14:44:29.184Z,34.00
2019-05-14T14:46:58.756Z,34.90
2019-05-14T14:49:30.097Z,35.60
2019-05-14T14:51:59.457Z,35.20
2019-05-14T14:54:29.018Z,34.70
2019-05-14T14:56:59.201Z,33.50
2019-05-14T14:59:30.473Z,32.90
2019-05-14T15:01:59.962Z,32.50
2019-05-14T15:04:29.424Z,32.10
2019-05-14T15:07:02.553Z,31.20
2019-05-14T15:09:32.512Z,31.20
2019-05-14T15:12:01.907Z,31.00
2019-05-14T15:14:31.322Z,31.10
2019-05-14T15:17:00.708Z,30.70
2019-05-14T15:19:30.119Z,30.80
2019-05-14T15:21:59.516Z,30.50
2019-05-14T15:24:28.925Z,30.30
2019-05-14T15:27:06.479Z,30.30
2019-05-14T15:29:29.394Z,30.50
2019-05-14T15:31:59.348Z,30.80
2019-05-14T15:34:29.675Z,31.50
2019-05-14T15:36:59.901Z,31.80
2019-05-14T15:39:30.218Z,31.30
2019-05-14T15:42:05.765Z,30.80
2019-05-14T15:44:47.417Z,29.80
2019-05-14T15:47:01.957Z,29.10
2019-05-14T15:49:31.376Z,28.20
2019-05-14T15:52:00.743Z,28.40
2019-05-14T15:54:42.951Z,28.40
2019-05-14T15:57:01.305Z,28.60
2019-05-14T15:59:30.686Z,29.50
2019-05-14T16:02:00.080Z,30.50
2019-05-14T16:04:29.463Z,31.50
2019-05-14T16:06:58.872Z,32.70
2019-05-14T16:09:28.882Z,33.90
2019-05-14T16:11:58.879Z,34.70
2019-05-14T16:14:29.995Z,35.70
2019-05-14T16:16:59.638Z,36.20
2019-05-14T16:19:29.038Z,36.90
2019-05-14T16:21:58.748Z,37.00
2019-05-14T16:24:28.666Z,37.30
2019-05-14T16:27:00.284Z,37.20
2019-05-14T16:29:38.192Z,37.30
2019-05-14T16:32:00.232Z,37.50
2019-05-14T16:34:29.622Z,36.80
2019-05-14T16:36:59.035Z,36.90
2019-05-14T16:39:28.548Z,36.80
2019-05-14T16:41:58.304Z,36.70
2019-05-14T16:44:28.266Z,36.50
2019-05-14T16:46:58.730Z,35.40
2019-05-14T16:49:29.586Z,34.80
2019-05-14T16:51:59.730Z,35.20
2019-05-14T16:54:29.788Z,35.70
2019-05-14T16:56:59.355Z,36.20
2019-05-14T16:59:29.501Z,37.10
2019-05-14T17:01:59.191Z,37.80
2019-05-14T17:04:29.295Z,38.40
2019-05-14T17:06:59.113Z,38.80
2019-05-14T17:09:28.561Z,39.00
2019-05-14T17:11:59.024Z,38.90
2019-05-14T17:14:29.260Z,37.80
2019-05-14T17:16:59.582Z,37.50
2019-05-14T17:19:29.872Z,37.50
2019-05-14T17:21:59.565Z,38.40
2019-05-14T17:24:29.486Z,38.10
2019-05-14T17:26:58.964Z,38.20
2019-05-14T17:29:28.754Z,38.20
2019-05-14T17:31:58.262Z,38.20
2019-05-14T17:34:29.268Z,38.30
2019-05-14T17:36:59.400Z,38.20
2019-05-14T17:39:28.874Z,38.10
2019-05-14T17:41:58.921Z,38.30
2019-05-14T17:44:28.335Z,38.40
2019-05-14T17:46:58.708Z,38.40
2019-05-14T17:49:28.430Z,38.30
2019-05-14T17:51:58.194Z,38.30
2019-05-14T17:54:28.474Z,38.20
2019-05-14T17:56:59.173Z,37.90
2019-05-14T17:59:29.732Z,38.00
2019-05-14T18:01:59.401Z,38.40
2019-05-14T18:04:28.802Z,38.70
2019-05-14T18:06:59.209Z,39.10
2019-05-14T18:09:29.365Z,39.50
2019-05-14T18:11:58.917Z,40.10
2019-05-14T18:14:28.559Z,41.40
2019-05-14T18:16:58.598Z,41.60
2019-05-14T18:19:29.321Z,42.10
2019-05-14T18:21:59.325Z,42.50
2019-05-14T18:24:28.926Z,42.70
2019-05-14T18:26:58.351Z,43.10
2019-05-14T18:29:29.594Z,43.30
2019-05-14T18:32:01.173Z,43.60
2019-05-14T18:34:29.849Z,43.80
2019-05-14T18:37:01.220Z,44.10
2019-05-14T18:39:30.300Z,44.50
2019-05-14T18:42:00.509Z,44.70
2019-05-14T18:44:30.210Z,45.90
2019-05-14T18:46:59.642Z,45.70
2019-05-14T18:49:29.033Z,46.30
2019-05-14T18:51:59.329Z,46.90
2019-05-14T18:54:29.338Z,47.40
2019-05-14T18:56:59.660Z,48.20
2019-05-14T18:59:30.790Z,48.60
2019-05-14T19:02:00.412Z,49.00
2019-05-14T19:04:29.800Z,50.30
2019-05-14T19:06:59.226Z,50.00
2019-05-14T19:09:29.178Z,50.40
2019-05-14T19:11:58.940Z,50.60
2019-05-14T19:14:29.235Z,51.20
2019-05-14T19:16:58.735Z,51.70
2019-05-14T19:19:29.338Z,51.80
2019-05-14T19:21:58.911Z,52.10
2019-05-14T19:24:28.791Z,52.50
2019-05-14T19:26:59.606Z,52.80
2019-05-14T19:29:28.986Z,52.90
2019-05-14T19:31:58.375Z,53.20
2019-05-14T19:34:28.761Z,53.40
2019-05-14T19:36:58.203Z,53.90
2019-05-14T19:39:28.209Z,53.90
2019-05-14T19:41:57.716Z,54.40
2019-05-14T19:44:29.606Z,54.60
2019-05-14T19:46:59.227Z,55.30
2019-05-14T19:49:28.877Z,55.40
2019-05-14T19:51:58.819Z,55.90
2019-05-14T19:54:29.217Z,56.30
2019-05-14T19:57:00.807Z,56.50
2019-05-14T19:59:29.835Z,56.70
2019-05-14T20:01:59.275Z,57.20
2019-05-14T20:04:29.179Z,57.40
2019-05-14T20:06:58.743Z,57.80
2019-05-14T20:09:28.215Z,57.70
2019-05-14T20:11:58.109Z,57.70
2019-05-14T20:14:28.706Z,58.10
2019-05-14T20:16:58.389Z,58.00
2019-05-14T20:19:28.633Z,58.20
2019-05-14T20:21:58.769Z,58.50
2019-05-14T20:24:28.411Z,58.60
2019-05-14T20:27:08.266Z,58.40
2019-05-14T20:29:28.848Z,58.50
2019-05-14T20:32:01.653Z,58.50
2019-05-14T20:34:29.372Z,58.10
2019-05-14T20:37:00.049Z,57.90
2019-05-14T20:39:31.616Z,57.80
2019-05-14T20:42:00.884Z,57.70
2019-05-14T20:44:31.216Z,58.20
2019-05-14T20:47:00.607Z,57.60
2019-05-14T20:49:30.050Z,57.70
2019-05-14T20:51:59.600Z,58.10
2019-05-14T20:54:29.119Z,58.40
2019-05-14T20:56:58.720Z,58.80
2019-05-14T20:59:28.318Z,59.10
2019-05-14T21:01:58.949Z,59.50
2019-05-14T21:04:28.415Z,59.90
2019-05-14T21:06:58.739Z,60.10
2019-05-14T21:09:28.836Z,60.00
2019-05-14T21:11:58.535Z,60.10
2019-05-14T21:14:28.046Z,60.50
2019-05-14T21:16:57.480Z,60.60
2019-05-14T21:19:28.333Z,61.00
2019-05-14T21:21:58.150Z,61.30
2019-05-14T21:24:29.541Z,61.10
2019-05-14T21:26:59.028Z,62.00
2019-05-14T21:29:30.540Z,61.50
2019-05-14T21:32:01.547Z,61.70
2019-05-14T21:34:30.591Z,61.80
2019-05-14T21:36:59.999Z,61.80
2019-05-14T21:39:29.353Z,61.80
2019-05-14T21:41:58.842Z,61.90
2019-05-14T21:44:28.477Z,61.90
2019-05-14T21:46:58.938Z,62.00
2019-05-14T21:49:28.957Z,62.30
2019-05-14T21:51:58.618Z,62.60
2019-05-14T21:54:28.080Z,62.70
2019-05-14T21:56:59.121Z,62.80
2019-05-14T21:59:28.646Z,62.90
2019-05-14T22:01:58.984Z,62.90
2019-05-14T22:04:28.958Z,62.90
2019-05-14T22:06:58.416Z,62.90
2019-05-14T22:09:28.510Z,62.90
2019-05-14T22:11:58.250Z,62.90
2019-05-14T22:14:28.359Z,63.20
2019-05-14T22:16:58.439Z,63.40
2019-05-14T22:19:28.667Z,63.40
2019-05-14T22:21:58.686Z,63.60
2019-05-14T22:24:28.729Z,63.60
2019-05-14T22:26:58.351Z,63.60
2019-05-14T22:29:28.621Z,63.70
2019-05-14T22:31:58.715Z,63.80
2019-05-14T22:34:28.158Z,63.90
2019-05-14T22:36:58.138Z,63.90
2019-05-14T22:39:29.113Z,64.00
2019-05-14T22:42:00.263Z,64.10
2019-05-14T22:44:29.667Z,64.40
2019-05-14T22:46:59.119Z,64.80
2019-05-14T22:49:28.597Z,65.20
2019-05-14T22:51:58.863Z,65.30
2019-05-14T22:54:29.163Z,65.50
2019-05-14T22:56:59.058Z,65.90
2019-05-14T22:59:28.556Z,66.30
2019-05-14T23:01:58.859Z,66.70
2019-05-14T23:04:28.955Z,67.10
2019-05-14T23:06:58.746Z,67.30
2019-05-14T23:09:28.196Z,67.60
2019-05-14T23:11:58.941Z,68.00
2019-05-14T23:14:28.411Z,68.20
2019-05-14T23:16:57.845Z,68.40
2019-05-14T23:19:27.225Z,68.80
2019-05-14T23:21:58.044Z,69.00
2019-05-14T23:24:28.479Z,69.10
2019-05-14T23:26:58.558Z,69.30
2019-05-14T23:29:28.816Z,69.30
2019-05-14T23:31:59.356Z,69.60
2019-05-14T23:34:28.731Z,69.90
2019-05-14T23:36:58.635Z,70.00
2019-05-14T23:39:28.956Z,70.20
2019-05-14T23:41:58.457Z,70.10
2019-05-14T23:44:28.785Z,70.10
2019-05-14T23:46:58.848Z,70.00
2019-05-14T23:49:28.387Z,69.90
2019-05-14T23:51:57.803Z,70.10
2019-05-14T23:54:29.182Z,69.90
2019-05-14T23:56:58.509Z,70.00
2019-05-14T23:59:29.355Z,70.30
